Time;durP1;ratioP1;P1;durP2;ratioP2;P2;SDS_P1;SDS_P2;PMS_P1;PMS_P2;Temp;Humidity;BMP_temperature;BMP_pressure;BME280_temperature;BME280_humidity;BME280_pressure;Samples;Min_cycle;Max_cycle;Signal;HPM_P1;HPM_P2
2023/03/03 00:03:22;;;;;;;24.10;21.50;;;23.00;48.70;;;;;;222380;1253;22510;-54
2023/03/03 00:08:26;;;;;;;22.80;20.10;;;23.10;48.60;;;;;;222290;1246;24308;-53
2023/03/03 00:13:32;;;;;;;24.10;20.60;;;23.10;48.30;;;;;;222592;1263;22518;-56
2023/03/03 00:18:40;;;;;;;21.00;18.70;;;23.20;48.30;;;;;;222200;1266;23174;-52
2023/03/03 00:23:45;;;;;;;23.60;20.10;;;23.20;48.40;;;;;;222564;1263;22541;-54
2023/03/03 00:28:51;;;;;;;21.20;18.70;;;23.30;48.40;;;;;;222542;1263;23382;-55
2023/03/03 00:34:00;;;;;;;20.70;18.30;;;23.30;48.20;;;;;;222419;1263;22504;-57
2023/03/03 00:39:36;;;;;;;20.10;17.50;;;23.40;48.10;;;;;;222525;1266;25454;-53
2023/03/03 00:44:56;;;;;;;21.40;18.60;;;23.50;48.00;;;;;;222456;1253;25312;-55
2023/03/03 00:50:06;;;;;;;21.70;19.50;;;23.50;47.80;;;;;;222549;1268;22618;-55
2023/03/03 00:55:11;;;;;;;21.00;18.70;;;23.40;48.00;;;;;;222313;1266;22494;-56
2023/03/03 01:00:15;;;;;;;20.30;18.10;;;23.40;48.00;;;;;;222277;1265;22502;-55
2023/03/03 01:05:20;;;;;;;19.90;17.80;;;23.40;48.50;;;;;;222527;1266;22506;-53
2023/03/03 01:10:27;;;;;;;23.30;19.40;;;23.30;48.00;;;;;;222519;1265;22917;-54
2023/03/03 01:15:31;;;;;;;21.90;18.30;;;23.10;48.50;;;;;;222329;1263;22508;-52
2023/03/03 01:20:35;;;;;;;18.70;16.80;;;23.00;48.60;;;;;;222475;1260;22505;-55
2023/03/03 01:25:40;;;;;;;18.60;16.60;;;22.90;48.80;;;;;;222506;1253;24042;-56
2023/03/03 01:30:45;;;;;;;18.60;16.60;;;22.70;49.30;;;;;;222457;1266;22560;-56
2023/03/03 01:35:49;;;;;;;19.10;17.10;;;22.70;49.50;;;;;;222808;1263;25476;-56
2023/03/03 01:40:56;;;;;;;18.90;15.90;;;22.60;49.30;;;;;;222322;1263;25404;-53
2023/03/03 01:46:01;;;;;;;17.50;15.60;;;22.60;49.30;;;;;;222292;1253;25216;-53
2023/03/03 01:51:22;;;;;;;19.70;17.00;;;22.50;49.40;;;;;;222617;1254;24510;-56
2023/03/03 01:56:27;;;;;;;18.10;16.20;;;22.50;49.50;;;;;;222278;1263;22604;-41
2023/03/03 02:01:32;;;;;;;18.80;16.40;;;22.40;49.60;;;;;;222387;1267;24387;-39
2023/03/03 02:06:43;;;;;;;18.20;16.00;;;22.30;49.70;;;;;;222275;1261;22587;-40
2023/03/03 02:11:51;;;;;;;17.30;15.50;;;22.30;50.10;;;;;;222126;1263;22614;-39
2023/03/03 02:16:55;;;;;;;16.70;15.00;;;22.30;49.80;;;;;;222352;1263;350757;-40
2023/03/03 02:22:03;;;;;;;17.60;15.70;;;22.10;49.80;;;;;;222330;1257;22511;-40
2023/03/03 02:27:07;;;;;;;17.70;15.80;;;22.10;49.80;;;;;;222435;1263;22528;-39
2023/03/03 02:32:12;;;;;;;18.60;16.60;;;22.10;49.90;;;;;;222665;1263;24216;-39
2023/03/03 02:37:17;;;;;;;17.30;15.60;;;22.00;50.00;;;;;;222554;1263;22624;-42
2023/03/03 02:42:27;;;;;;;17.70;15.80;;;22.00;49.80;;;;;;222498;1263;25486;-40
2023/03/03 02:47:32;;;;;;;17.70;15.30;;;22.00;50.20;;;;;;222740;1253;25712;-40
2023/03/03 02:52:36;;;;;;;16.70;15.00;;;21.90;50.10;;;;;;222527;1254;24385;-44
2023/03/03 02:57:41;;;;;;;16.50;14.80;;;21.80;50.10;;;;;;222559;1261;26152;-41
2023/03/03 03:02:46;;;;;;;15.90;14.30;;;22.00;50.00;;;;;;222597;1263;22788;-40
2023/03/03 03:07:50;;;;;;;15.20;13.70;;;22.30;49.60;;;;;;222428;1263;22520;-40
2023/03/03 03:12:55;;;;;;;16.70;14.60;;;22.60;49.00;;;;;;222461;1268;22982;-41
2023/03/03 03:17:59;;;;;;;17.10;14.40;;;22.80;48.90;;;;;;222620;1253;24182;-40
2023/03/03 03:23:03;;;;;;;16.70;13.40;;;22.80;48.70;;;;;;222495;1263;23938;-40
2023/03/03 03:28:08;;;;;;;14.70;13.20;;;22.80;48.70;;;;;;222589;1263;22510;-41
2023/03/03 03:33:12;;;;;;;14.40;12.90;;;22.90;48.30;;;;;;222427;1263;22517;-42
2023/03/03 03:38:17;;;;;;;14.80;13.20;;;23.00;48.00;;;;;;222596;1268;22516;-41
2023/03/03 03:43:23;;;;;;;14.50;13.10;;;23.00;47.70;;;;;;222149;1244;22499;-41
2023/03/03 03:48:28;;;;;;;14.80;13.30;;;23.10;47.80;;;;;;222577;1246;22645;-41
2023/03/03 03:53:33;;;;;;;14.90;13.40;;;23.10;47.80;;;;;;222319;1263;22776;-40
2023/03/03 03:58:39;;;;;;;13.60;12.30;;;23.10;47.50;;;;;;222539;1260;25614;-41
2023/03/03 04:03:44;;;;;;;14.10;11.90;;;23.30;47.60;;;;;;222545;1265;25198;-41
2023/03/03 04:08:50;;;;;;;13.50;12.10;;;23.30;47.60;;;;;;222449;1246;24193;-41
2023/03/03 04:13:56;;;;;;;13.50;12.20;;;23.40;47.30;;;;;;222443;1261;22526;-42
2023/03/03 04:19:02;;;;;;;13.50;12.00;;;23.40;47.60;;;;;;222606;1265;23139;-41
2023/03/03 04:24:07;;;;;;;13.00;11.70;;;23.50;47.40;;;;;;222580;1268;22505;-42
2023/03/03 04:29:13;;;;;;;12.70;11.40;;;23.50;47.20;;;;;;222457;1254;22518;-40
2023/03/03 04:34:18;;;;;;;13.30;12.00;;;23.60;47.20;;;;;;222289;1264;22613;-42
2023/03/03 04:39:22;;;;;;;12.50;11.20;;;23.70;47.10;;;;;;222555;1265;22732;-41
2023/03/03 04:44:27;;;;;;;13.10;11.90;;;23.70;46.90;;;;;;222550;1259;22514;-42
2023/03/03 04:49:31;;;;;;;12.60;11.40;;;23.70;46.90;;;;;;222571;1254;22683;-41
2023/03/03 04:54:35;;;;;;;13.00;11.70;;;23.70;46.80;;;;;;222414;1262;22500;-41
2023/03/03 04:59:39;;;;;;;12.10;10.90;;;23.70;47.00;;;;;;222647;1266;22500;-41
2023/03/03 05:04:43;;;;;;;11.80;10.70;;;23.70;47.00;;;;;;222490;1266;22512;-40
2023/03/03 05:09:47;;;;;;;12.60;11.30;;;23.50;47.00;;;;;;222657;1266;22530;-40
2023/03/03 05:14:52;;;;;;;13.40;11.30;;;23.40;47.30;;;;;;222605;1263;22504;-41
2023/03/03 05:19:56;;;;;;;12.90;10.40;;;23.30;47.30;;;;;;222557;1263;22601;-40
2023/03/03 05:25:00;;;;;;;11.60;10.50;;;23.10;47.70;;;;;;222609;1266;24195;-41
2023/03/03 05:30:05;;;;;;;11.60;10.10;;;22.90;48.10;;;;;;222265;1252;22512;-41
2023/03/03 05:35:09;;;;;;;12.20;11.00;;;22.90;48.20;;;;;;222660;1256;25307;-41
2023/03/03 05:40:13;;;;;;;11.80;10.60;;;22.80;48.10;;;;;;222484;1266;25363;-40
2023/03/03 05:45:23;;;;;;;10.90;9.80;;;22.70;48.30;;;;;;222423;1254;22547;-56
2023/03/03 05:50:27;;;;;;;11.10;10.00;;;22.60;48.50;;;;;;222538;1261;22527;-55
2023/03/03 05:55:31;;;;;;;11.00;9.90;;;22.60;48.90;;;;;;222593;1264;22528;-57
2023/03/03 06:00:35;;;;;;;10.90;9.90;;;22.50;48.60;;;;;;222468;1266;22504;-56
2023/03/03 06:05:40;;;;;;;10.80;9.70;;;22.50;48.80;;;;;;222345;1268;24290;-54
2023/03/03 06:10:44;;;;;;;9.90;8.90;;;22.40;49.00;;;;;;222597;1263;24171;-54
2023/03/03 06:15:48;;;;;;;10.00;8.80;;;22.40;48.90;;;;;;222517;1263;22521;-52
2023/03/03 06:20:54;;;;;;;13.30;9.20;;;22.30;49.10;;;;;;222527;1263;24336;-56
2023/03/03 06:25:57;;;;;;;9.80;8.90;;;22.20;49.30;;;;;;222292;1254;22627;-56
2023/03/03 06:31:02;;;;;;;9.70;8.80;;;22.30;49.50;;;;;;222526;1266;24173;-46
2023/03/03 06:36:09;;;;;;;9.80;8.90;;;22.00;49.50;;;;;;222519;1263;22515;-49
2023/03/03 06:41:14;;;;;;;9.40;8.50;;;22.00;50.40;;;;;;222488;1266;24238;-46
2023/03/03 06:46:18;;;;;;;15.40;9.40;;;22.00;50.30;;;;;;222506;1261;25297;-49
2023/03/03 06:51:32;;;;;;;10.40;9.20;;;22.00;50.80;;;;;;222650;1264;22634;-47
2023/03/03 06:56:37;;;;;;;9.50;8.50;;;22.00;50.50;;;;;;222671;1266;25300;-47
2023/03/03 07:01:43;;;;;;;16.40;8.90;;;21.80;50.70;;;;;;222539;1266;26315;-45
2023/03/03 07:06:47;;;;;;;15.20;9.90;;;21.80;51.00;;;;;;222580;1263;24289;-47
2023/03/03 07:11:56;;;;;;;14.10;8.70;;;21.90;51.00;;;;;;222300;1266;22537;-47
2023/03/03 07:17:03;;;;;;;12.50;9.10;;;21.80;51.10;;;;;;222814;1265;24243;-46
2023/03/03 07:22:15;;;;;;;10.00;8.80;;;21.90;51.10;;;;;;222473;1268;22640;-46
2023/03/03 07:27:30;;;;;;;8.90;7.90;;;21.80;51.30;;;;;;222357;1268;22639;-49
2023/03/03 07:32:37;;;;;;;17.20;8.90;;;21.80;50.70;;;;;;222535;1266;24339;-47
2023/03/03 07:37:41;;;;;;;13.90;8.50;;;21.70;50.60;;;;;;222175;1268;23419;-50
2023/03/03 07:42:45;;;;;;;12.60;7.70;;;21.70;51.30;;;;;;222379;1268;22569;-44
2023/03/03 07:48:08;;;;;;;8.60;7.50;;;21.70;50.70;;;;;;221909;1259;22515;-51
2023/03/03 07:53:41;;;;;;;9.30;7.40;;;22.00;49.60;;;;;;222289;1260;25262;-48
2023/03/03 07:58:46;;;;;;;15.40;7.70;;;22.30;48.90;;;;;;220631;1272;22532;-47
2023/03/03 08:03:51;;;;;;;9.50;7.60;;;22.50;48.80;;;;;;220682;1269;22699;-38
2023/03/03 08:09:01;;;;;;;7.90;6.40;;;22.50;47.50;;;;;;220812;1276;24368;-39
2023/03/03 08:14:15;;;;;;;13.00;9.60;;;22.60;47.20;;;;;;221359;1273;25306;-38
2023/03/03 08:19:19;;;;;;;9.60;7.20;;;22.70;46.80;;;;;;220530;1270;23933;-40
2023/03/03 08:24:23;;;;;;;9.30;7.50;;;22.70;46.40;;;;;;220779;1269;24776;-39
2023/03/03 08:29:27;;;;;;;7.30;6.60;;;22.90;46.00;;;;;;220868;1276;22542;-44
2023/03/03 08:34:32;;;;;;;7.20;6.50;;;22.80;45.80;;;;;;221641;1269;22521;-39
2023/03/03 08:39:36;;;;;;;7.20;6.20;;;22.70;46.00;;;;;;222515;1266;22611;-39
2023/03/03 08:44:40;;;;;;;8.90;6.70;;;22.80;45.90;;;;;;222436;1266;22626;-36
2023/03/03 08:49:44;;;;;;;9.20;6.50;;;22.90;46.00;;;;;;222246;1269;25313;-41
2023/03/03 08:54:48;;;;;;;13.60;7.10;;;22.90;45.30;;;;;;222197;1266;25313;-37
2023/03/03 08:59:53;;;;;;;9.90;6.30;;;23.00;45.20;;;;;;222259;1266;22547;-37
2023/03/03 09:04:57;;;;;;;13.70;6.50;;;23.10;45.40;;;;;;222200;1264;24244;-36
2023/03/03 09:10:01;;;;;;;11.20;6.10;;;23.10;45.10;;;;;;222168;1263;24261;-37
2023/03/03 09:15:20;;;;;;;8.90;6.10;;;23.30;46.30;;;;;;221847;1264;25201;-38
2023/03/03 09:20:30;;;;;;;13.60;6.40;;;23.30;44.50;;;;;;222110;1269;25315;-37
2023/03/03 09:25:36;;;;;;;;;;;23.40;44.40;;;;;;222205;1266;22506;-38
2023/03/03 09:30:47;;;;;;;10.30;6.80;;;23.40;44.00;;;;;;222030;1262;22518;-38
2023/03/03 09:36:00;;;;;;;9.10;6.40;;;23.40;44.30;;;;;;222024;1266;22518;-37
2023/03/03 09:41:07;;;;;;;10.70;6.20;;;23.40;44.30;;;;;;222047;1263;22602;-37
2023/03/03 09:46:41;;;;;;;6.90;6.10;;;23.60;44.30;;;;;;222275;1266;23134;-39
2023/03/03 09:52:26;;;;;;;10.50;6.70;;;23.60;44.60;;;;;;221670;1263;22785;-38
2023/03/03 09:58:08;;;;;;;7.90;6.60;;;23.60;44.10;;;;;;220564;1259;24827;-44
2023/03/03 10:03:20;;;;;;;8.90;5.90;;;23.70;44.00;;;;;;220621;1269;22545;-40
2023/03/03 10:08:35;;;;;;;7.90;7.10;;;23.70;43.80;;;;;;220613;1269;23001;-41
2023/03/03 10:13:58;;;;;;;6.10;5.60;;;23.70;44.00;;;;;;220721;1272;22890;-41
2023/03/03 10:19:33;;;;;;;7.20;6.00;;;23.60;44.30;;;;;;220818;1272;22824;-41
2023/03/03 10:25:12;;;;;;;7.90;6.50;;;23.50;43.90;;;;;;220791;1269;22946;-41
2023/03/03 10:30:32;;;;;;;6.80;6.10;;;23.20;44.90;;;;;;220726;1266;23582;-40
2023/03/03 10:35:56;;;;;;;6.70;6.10;;;23.10;45.00;;;;;;221539;1263;24828;-40
2023/03/03 10:41:53;;;;;;;6.50;6.00;;;23.00;45.20;;;;;;221699;1269;22520;-40
2023/03/03 10:47:32;;;;;;;7.00;6.20;;;22.90;45.40;;;;;;222058;1251;22715;-40
2023/03/03 10:53:09;;;;;;;6.70;6.00;;;22.70;45.30;;;;;;220580;1275;23896;-40
2023/03/03 10:59:08;;;;;;;6.80;5.80;;;22.70;45.40;;;;;;220557;1275;22797;-41
2023/03/03 11:04:44;;;;;;;6.30;5.80;;;22.60;45.30;;;;;;219717;1281;23358;-39
2023/03/03 11:09:56;;;;;;;7.30;6.50;;;22.50;45.50;;;;;;219713;1281;24392;-39
2023/03/03 11:15:27;;;;;;;7.50;6.80;;;22.40;45.40;;;;;;219672;1282;22685;-42
2023/03/03 11:20:46;;;;;;;7.40;6.50;;;22.30;45.50;;;;;;219636;1261;26528;-41
2023/03/03 11:26:35;;;;;;;7.40;6.70;;;22.20;45.50;;;;;;219608;1276;22534;-42
2023/03/03 11:31:56;;;;;;;7.20;6.60;;;22.20;45.40;;;;;;219862;1275;25725;-42
2023/03/03 11:37:08;;;;;;;7.00;6.10;;;22.10;45.40;;;;;;221984;1257;24273;-38
2023/03/03 11:42:41;;;;;;;6.50;5.90;;;22.00;45.50;;;;;;222471;1263;22520;-38
2023/03/03 11:48:20;;;;;;;7.20;6.50;;;22.00;45.50;;;;;;222566;1258;24052;-40
2023/03/03 11:53:53;;;;;;;7.40;6.60;;;21.90;45.50;;;;;;221784;1263;26168;-38
2023/03/03 11:59:29;;;;;;;7.40;6.70;;;21.90;45.50;;;;;;222311;1260;22686;-39
2023/03/03 12:04:38;;;;;;;7.50;6.80;;;21.90;45.50;;;;;;222421;1268;22502;-38
2023/03/03 12:09:51;;;;;;;6.90;6.20;;;21.90;45.40;;;;;;222265;1268;22597;-38
2023/03/03 12:15:17;;;;;;;6.80;6.20;;;22.10;45.10;;;;;;222582;1264;23896;-41
2023/03/03 12:20:30;;;;;;;7.60;5.90;;;22.40;44.50;;;;;;222332;1251;22514;-40
2023/03/03 12:25:45;;;;;;;6.20;5.70;;;22.60;44.40;;;;;;222119;1266;25314;-39
2023/03/03 12:30:58;;;;;;;5.70;5.20;;;22.80;44.20;;;;;;222531;1256;26662;-37
2023/03/03 12:36:02;;;;;;;6.60;5.60;;;23.00;44.10;;;;;;222602;1269;23875;-36
2023/03/03 12:41:31;;;;;;;6.40;5.20;;;23.10;44.00;;;;;;223221;1263;22543;-37
2023/03/03 12:46:43;;;;;;;6.40;5.80;;;23.20;43.90;;;;;;222866;1264;24383;-36
2023/03/03 12:51:57;;;;;;;;;;;23.20;43.50;;;;;;222222;1264;25334;-37
2023/03/03 12:57:14;;;;;;;6.70;5.80;;;23.30;43.40;;;;;;222169;1266;22647;-38
2023/03/03 13:02:30;;;;;;;6.30;5.70;;;23.30;43.90;;;;;;222472;1264;23869;-36
2023/03/03 13:07:44;;;;;;;7.10;5.30;;;23.30;43.60;;;;;;222404;1260;24241;-36
2023/03/03 13:12:53;;;;;;;6.30;5.10;;;23.40;43.60;;;;;;222400;1262;24249;-36
2023/03/03 13:18:00;;;;;;;5.60;5.10;;;23.40;43.60;;;;;;222382;1269;25388;-38
2023/03/03 13:23:12;;;;;;;6.00;5.50;;;23.50;43.50;;;;;;222294;1251;25346;-38
2023/03/03 13:28:38;;;;;;;6.30;4.80;;;23.50;43.50;;;;;;222380;1264;22630;-37
2023/03/03 13:33:56;;;;;;;10.30;5.30;;;23.60;43.40;;;;;;222330;1264;23204;-36
2023/03/03 13:39:26;;;;;;;5.80;5.20;;;23.60;43.70;;;;;;222073;1264;24308;-37
2023/03/03 13:44:44;;;;;;;5.60;5.10;;;23.60;43.30;;;;;;222432;1264;22508;-36
2023/03/03 13:49:57;;;;;;;5.30;4.90;;;23.60;43.10;;;;;;222418;1264;25590;-36
2023/03/03 13:55:21;;;;;;;5.10;4.70;;;23.60;43.30;;;;;;222373;1255;22705;-37
2023/03/03 14:00:28;;;;;;;6.30;4.50;;;23.40;43.60;;;;;;221983;1256;24836;-40
2023/03/03 14:05:43;;;;;;;5.50;5.10;;;23.40;43.80;;;;;;221842;1269;24324;-40
2023/03/03 14:11:13;;;;;;;6.20;4.80;;;23.50;43.70;;;;;;222197;1262;24253;-48
2023/03/03 14:16:39;;;;;;;5.20;4.80;;;23.40;44.10;;;;;;222261;1262;24225;-41
2023/03/03 14:22:02;;;;;;;6.50;5.70;;;23.30;44.50;;;;;;221723;1253;24228;-39
2023/03/03 14:27:23;;;;;;;5.10;4.70;;;23.00;45.10;;;;;;223004;1264;23964;-39
2023/03/03 14:32:27;;;;;;;5.50;4.90;;;23.00;45.10;;;;;;221668;1263;22647;-39
2023/03/03 14:37:49;;;;;;;17.40;8.40;;;22.90;45.70;;;;;;221624;1263;23017;-39
2023/03/03 14:42:56;;;;;;;13.10;8.00;;;22.90;45.30;;;;;;221442;1254;22599;-39
2023/03/03 14:48:09;;;;;;;12.40;7.40;;;22.80;45.20;;;;;;221652;1254;25245;-39
2023/03/03 14:53:30;;;;;;;8.70;7.00;;;22.80;44.70;;;;;;222262;1263;25185;-39
2023/03/03 14:58:40;;;;;;;8.70;6.70;;;22.70;44.80;;;;;;222167;1248;25331;-42
2023/03/03 15:04:23;;;;;;;9.00;6.90;;;22.60;44.60;;;;;;222488;1264;22590;-39
2023/03/03 15:09:39;;;;;;;8.40;6.40;;;22.60;44.50;;;;;;222443;1264;22653;-41
2023/03/03 15:14:50;;;;;;;9.80;6.40;;;22.50;44.60;;;;;;222229;1269;27310;-40
2023/03/03 15:20:13;;;;;;;9.80;6.20;;;22.40;44.70;;;;;;222400;1267;22572;-39
2023/03/03 15:25:58;;;;;;;7.40;6.30;;;22.40;45.20;;;;;;222613;1263;23904;-40
2023/03/03 15:31:19;;;;;;;6.60;6.00;;;22.30;45.80;;;;;;222565;1257;22521;-41
2023/03/03 15:36:40;;;;;;;12.00;6.40;;;22.10;45.80;;;;;;222118;1268;22514;-42
2023/03/03 15:42:23;;;;;;;8.60;5.90;;;22.10;46.00;;;;;;222576;1264;24258;-39
2023/03/03 15:47:53;;;;;;;24.80;7.10;;;22.00;46.30;;;;;;220832;1263;22523;-39
2023/03/03 15:53:00;;;;;;;24.00;6.90;;;22.10;46.60;;;;;;220618;1270;25331;-38
2023/03/03 15:58:20;;;;;;;20.10;7.30;;;22.10;46.80;;;;;;220661;1263;22591;-38
2023/03/03 16:03:35;;;;;;;33.30;9.50;;;22.00;46.90;;;;;;220273;1264;22514;-45
2023/03/03 16:09:21;;;;;;;23.00;9.70;;;22.00;48.10;;;;;;220671;1274;25379;-37
2023/03/03 16:14:46;;;;;;;59.80;28.50;;;22.00;48.80;;;;;;219891;1276;22529;-41
2023/03/03 16:20:15;;;;;;;44.50;27.20;;;22.00;49.70;;;;;;222145;1269;22523;-39
2023/03/03 16:25:38;;;;;;;48.00;26.20;;;22.10;49.60;;;;;;221696;1262;22563;-41
2023/03/03 16:30:47;;;;;;;46.40;25.00;;;22.10;50.00;;;;;;221703;1263;22527;-36
2023/03/03 16:36:01;;;;;;;37.90;23.20;;;22.20;50.40;;;;;;221795;1263;24292;-38
2023/03/03 16:41:13;;;;;;;33.40;22.70;;;22.10;50.50;;;;;;230131;1263;22497;-40
2023/03/03 16:46:34;;;;;;;41.30;23.90;;;22.20;50.10;;;;;;228170;1266;22513;-51
2023/03/03 16:52:06;;;;;;;33.80;20.70;;;22.40;50.70;;;;;;222013;1263;24239;-48
2023/03/03 16:57:19;;;;;;;37.60;21.90;;;22.30;50.60;;;;;;222202;1263;22589;-45
2023/03/03 17:02:52;;;;;;;28.80;19.90;;;22.20;51.10;;;;;;221745;1263;23882;-46
2023/03/03 17:08:30;;;;;;;31.70;20.00;;;22.20;51.40;;;;;;222270;1263;23515;-43
2023/03/03 17:14:17;;;;;;;28.40;19.60;;;22.10;51.60;;;;;;222035;1264;23880;-43
2023/03/03 17:19:51;;;;;;;30.70;20.10;;;22.10;51.50;;;;;;226075;1255;25437;-54
2023/03/03 17:25:24;;;;;;;21.50;16.30;;;22.10;52.20;;;;;;222038;1254;22564;-58
2023/03/03 17:30:53;;;;;;;26.10;15.50;;;22.30;52.60;;;;;;221899;1269;24984;-53
2023/03/03 17:36:41;;;;;;;24.20;14.90;;;22.50;51.80;;;;;;222531;1263;22991;-52
2023/03/03 17:42:00;;;;;;;20.60;14.00;;;22.50;52.10;;;;;;221943;1263;24093;-52
2023/03/03 17:47:08;;;;;;;17.00;12.70;;;22.40;51.70;;;;;;222659;1264;22508;-50
2023/03/03 17:52:34;;;;;;;22.20;12.70;;;22.30;51.40;;;;;;222108;1248;22534;-48
2023/03/03 17:58:08;;;;;;;17.70;12.90;;;22.10;52.40;;;;;;222496;1263;24983;-43
2023/03/03 18:03:38;;;;;;;22.20;11.90;;;22.10;52.50;;;;;;221952;1266;22601;-45
2023/03/03 18:09:09;;;;;;;20.50;12.00;;;22.00;54.50;;;;;;221999;1263;25318;-40
2023/03/03 18:14:48;;;;;;;17.50;11.20;;;21.80;53.70;;;;;;222490;1264;24238;-45
2023/03/03 18:20:27;;;;;;;21.00;10.80;;;21.80;55.60;;;;;;222299;1256;24232;-46
2023/03/03 18:25:57;;;;;;;20.20;10.90;;;21.70;56.20;;;;;;221958;1263;23004;-49
2023/03/03 18:31:03;;;;;;;16.80;10.60;;;21.70;55.00;;;;;;221879;1263;22519;-49
2023/03/03 18:36:28;;;;;;;14.10;9.70;;;21.70;54.80;;;;;;221850;1263;24193;-45
2023/03/03 18:42:05;;;;;;;19.10;10.20;;;21.70;54.80;;;;;;222271;1263;25265;-43
2023/03/03 18:47:10;;;;;;;14.10;9.20;;;21.80;54.60;;;;;;222233;1263;22629;-46
2023/03/03 18:52:31;;;;;;;17.20;9.50;;;21.80;53.60;;;;;;222311;1265;23846;-47
2023/03/03 18:57:40;;;;;;;16.50;9.70;;;21.90;54.60;;;;;;222318;1261;22513;-44
2023/03/03 19:02:58;;;;;;;22.10;9.50;;;22.10;54.70;;;;;;222462;1263;25411;-45
2023/03/03 19:08:22;;;;;;;19.70;8.90;;;22.30;54.10;;;;;;222256;1263;22510;-50
2023/03/03 19:14:19;;;;;;;12.10;8.60;;;22.40;54.40;;;;;;222462;1268;22635;-46
2023/03/03 19:19:33;;;;;;;12.70;9.20;;;22.70;54.00;;;;;;222459;1268;25237;-48
2023/03/03 19:24:40;;;;;;;19.60;9.60;;;22.90;53.80;;;;;;222343;1268;24199;-49
2023/03/03 19:29:46;;;;;;;14.10;9.90;;;23.00;53.30;;;;;;222506;1263;24207;-45
2023/03/03 19:35:32;;;;;;;11.50;8.90;;;22.90;53.50;;;;;;222473;1253;24311;-48
2023/03/03 19:41:30;;;;;;;13.20;9.00;;;23.00;53.60;;;;;;222609;1268;25211;-49
2023/03/03 19:46:36;;;;;;;15.30;8.50;;;23.10;53.30;;;;;;220804;1270;25293;-49
2023/03/03 19:51:46;;;;;;;15.00;9.00;;;23.10;53.40;;;;;;220697;1276;25461;-48
2023/03/03 19:56:55;;;;;;;12.10;7.70;;;23.30;53.20;;;;;;220687;1270;22717;-48
2023/03/03 20:02:09;;;;;;;11.10;8.50;;;23.10;53.50;;;;;;220814;1270;23213;-46
2023/03/03 20:08:03;;;;;;;16.60;9.80;;;22.90;54.10;;;;;;220653;1254;22533;-44
2023/03/03 20:13:30;;;;;;;38.50;10.80;;;22.90;53.90;;;;;;220769;1275;24211;-45
2023/03/03 20:19:01;;;;;;;16.40;8.90;;;22.90;54.80;;;;;;220397;1262;22517;-44
2023/03/03 20:24:29;;;;;;;22.80;7.70;;;22.70;53.40;;;;;;222112;1263;22509;-44
2023/03/03 20:29:36;;;;;;;15.80;8.40;;;22.70;53.80;;;;;;221921;1262;24368;-42
2023/03/03 20:35:06;;;;;;;12.80;7.70;;;22.60;53.90;;;;;;221943;1263;23937;-42
2023/03/03 20:40:32;;;;;;;12.70;7.90;;;22.70;54.00;;;;;;222069;1256;22692;-44
2023/03/03 20:46:15;;;;;;;10.20;7.70;;;22.40;54.50;;;;;;222168;1263;23020;-41
2023/03/03 20:51:58;;;;;;;17.30;7.30;;;22.30;54.10;;;;;;222218;1263;22901;-46
2023/03/03 20:57:43;;;;;;;16.60;7.90;;;22.20;54.30;;;;;;221995;1263;22538;-45
2023/03/03 21:02:55;;;;;;;13.60;7.70;;;22.20;54.30;;;;;;222020;1262;22533;-45
2023/03/03 21:08:03;;;;;;;15.70;8.10;;;22.10;54.80;;;;;;222540;1259;22507;-45
2023/03/03 21:13:42;;;;;;;15.00;7.60;;;22.00;54.40;;;;;;222616;1263;24243;-42
2023/03/03 21:19:11;;;;;;;16.60;7.70;;;22.00;54.60;;;;;;222554;1263;25352;-38
2023/03/03 21:24:20;;;;;;;15.60;7.40;;;21.90;55.00;;;;;;222474;1263;22644;-39
2023/03/03 21:29:31;;;;;;;12.80;8.50;;;21.90;54.20;;;;;;222407;1262;22594;-40
2023/03/03 21:34:38;;;;;;;11.60;7.70;;;21.80;53.70;;;;;;222624;1262;23948;-40
2023/03/03 21:39:44;;;;;;;15.90;7.40;;;21.80;53.80;;;;;;222551;1247;25439;-39
2023/03/03 21:44:50;;;;;;;14.10;8.20;;;21.80;54.30;;;;;;222295;1253;22588;-39
2023/03/03 21:49:55;;;;;;;24.50;11.20;;;21.70;53.90;;;;;;222592;1255;25306;-40
2023/03/03 21:54:59;;;;;;;23.20;11.10;;;21.60;55.30;;;;;;222542;1263;22914;-42
2023/03/03 22:00:05;;;;;;;23.90;11.00;;;21.50;56.90;;;;;;222369;1254;25252;-39
2023/03/03 22:05:10;;;;;;;21.10;10.90;;;21.40;56.90;;;;;;222738;1263;24369;-41
2023/03/03 22:10:14;;;;;;;23.70;11.00;;;21.60;58.70;;;;;;222667;1253;22696;-39
2023/03/03 22:15:18;;;;;;;20.80;10.60;;;21.50;58.50;;;;;;222508;1263;23708;-40
2023/03/03 22:20:22;;;;;;;27.50;10.30;;;21.50;58.00;;;;;;222537;1253;22518;-39
2023/03/03 22:25:26;;;;;;;14.30;10.20;;;21.50;57.50;;;;;;222655;1253;24326;-38
2023/03/03 22:30:30;;;;;;;17.50;9.50;;;21.40;57.10;;;;;;222635;1253;22507;-41
2023/03/03 22:35:35;;;;;;;16.20;9.30;;;21.80;56.40;;;;;;222362;1263;22595;-40
2023/03/03 22:40:39;;;;;;;18.40;9.90;;;22.30;55.60;;;;;;222431;1253;22504;-41
2023/03/03 22:45:43;;;;;;;14.20;9.30;;;22.60;54.70;;;;;;222685;1253;22648;-39
2023/03/03 22:50:48;;;;;;;15.20;8.90;;;22.90;53.40;;;;;;222662;1263;24292;-39
2023/03/03 22:55:53;;;;;;;15.20;8.30;;;23.00;53.30;;;;;;222423;1253;23935;-39
2023/03/03 23:00:56;;;;;;;11.10;8.40;;;23.20;52.60;;;;;;222598;1246;23860;-40
2023/03/03 23:06:01;;;;;;;12.50;8.00;;;23.10;52.60;;;;;;222612;1253;22509;-39
2023/03/03 23:11:05;;;;;;;15.10;8.90;;;23.00;52.50;;;;;;222535;1254;24197;-40
2023/03/03 23:16:09;;;;;;;14.40;8.80;;;23.10;52.30;;;;;;222637;1261;22607;-43
2023/03/03 23:21:14;;;;;;;11.60;8.40;;;23.10;51.90;;;;;;222634;1254;24195;-40
2023/03/03 23:26:18;;;;;;;10.40;8.20;;;23.10;51.60;;;;;;222660;1254;22762;-39
2023/03/03 23:31:25;;;;;;;15.10;9.00;;;23.10;51.60;;;;;;222333;1254;22527;-39
2023/03/03 23:36:28;;;;;;;14.80;8.80;;;23.20;51.60;;;;;;222540;1263;22532;-40
2023/03/03 23:41:33;;;;;;;13.60;9.00;;;23.20;51.50;;;;;;222370;1267;22511;-41
2023/03/03 23:46:38;;;;;;;10.40;8.00;;;23.20;51.10;;;;;;222406;1263;22881;-39
2023/03/03 23:51:42;;;;;;;16.50;9.50;;;23.20;50.30;;;;;;222572;1263;22852;-39
2023/03/03 23:56:46;;;;;;;11.90;9.10;;;23.10;49.90;;;;;;222575;1253;22537;-41
